Terminal Aerodrome Forecast
Issued by NWS Upton, NY

Home | Current Version | Previous Version | Text Only | Print | Product List | Glossary On
Versions: 1 2 3 4 5 6 7 8 9 10 11 12 13 14 15 16 17 18 19 20 21 22 23 24 25 26 27 28 29 30 31
000
FTUS41 KOKX 241310 AAA
TAFBDR
TAF AMD
KBDR 241310Z 2413/2512 20009KT P6SM SCT120 BKN200
     FM241500 20012G18KT P6SM OVC080
      TEMPO 2416/2419 6SM -RA BKN050
     FM241900 22012G20KT P6SM VCSH OVC040
     FM242300 22010KT P6SM OVC040
     FM250400 23007KT P6SM SCT040 BKN080=

USA.gov is the U.S. government's official web portal to all federal, state and local government web resources and services.